Flight Track Log - Related Links

Times and Time Zones

All times are in EDT time to prevent confusion due to time zone crossing. See the QLK118D flight status page for this flight to view local times or setup timezone preferences in your user account.

Time Position Orientation Groundspeed Altitude Reporting Facility
EDT Latitude Longitude Course Direction KTS MPH feet Rate Location/Type
Sun 05:23:13 AM -33.9360 151.1869 35° Northeast 146 168 1,000  Level Aus ATC (RADAR)
Sun 05:23:43 AM -33.9168 151.2031 35° Northeast 173 199 2,000 1,457 Climbing Aus ATC (RADAR)
Sun 05:24:23 AM -33.8858 151.2332 39° Northeast 222 255 2,700 1,500 Climbing Aus ATC (RADAR)
Sun 05:25:03 AM -33.8450 151.2556 25° Northeast 245 282 4,000 1,840 Climbing Aus ATC (RADAR)
Sun 05:25:38 AM -33.8078 151.2764 25° Northeast 254 292 5,000 750 Climbing Aus ATC (RADAR)
Sun 05:26:23 AM -33.7597 151.3026 24° Northeast 253 291 5,000 514 Level Aus ATC (RADAR)
Sun 05:27:23 AM -33.6960 151.3371 24° Northeast 249 287 5,900 1,620 Climbing Aus ATC (RADAR)
Sun 05:28:03 AM -33.6561 151.3595 25° Northeast 239 275 7,700 2,560 Climbing Aus ATC (RADAR)
Sun 05:28:38 AM -33.6213 151.3791 25° Northeast 238 274 9,100 2,314 Climbing Aus ATC (RADAR)
Sun 05:29:13 AM -33.5858 151.3987 25° Northeast 243 280 10,400 2,108 Climbing Aus ATC (RADAR)
Sun 05:29:52 AM -33.5427 151.4229 25° Northeast 249 287 11,700 1,895 Climbing Aus ATC (RADAR)
Sun 05:30:48 AM -33.4833 151.4562 25° Northeast 263 303 13,400 1,901 Climbing Aus ATC (RADAR)
Sun 05:31:33 AM -33.4334 151.4838 25° Northeast 263 303 14,900 1,920 Climbing Aus ATC (RADAR)
Sun 05:32:28 AM -33.3721 151.5179 25° Northeast 266 306 16,600 1,886 Climbing Aus ATC (RADAR)
Sun 05:33:18 AM -33.3181 151.5505 27° Northeast 263 303 18,200 1,765 Climbing Aus ATC (RADAR)
Sun 05:33:53 AM -33.2829 151.5774 33° Northeast 259 298 19,100 1,600 Climbing Aus ATC (RADAR)
Sun 05:34:33 AM -33.2428 151.6068 31° Northeast 255 293 20,200 1,457 Climbing Aus ATC (RADAR)
Sun 05:35:03 AM -33.2122 151.6290 31° Northeast 257 296 20,800 1,313 Climbing Aus ATC (RADAR)
Sun 05:35:37 AM -33.1751 151.6549 30° Northeast 263 303 21,600 1,478 Climbing Aus ATC (RADAR)
Sun 05:36:12 AM -33.1387 151.6808 31° Northeast 261 300 22,500 1,457 Climbing Aus ATC (RADAR)
Sun 05:36:47 AM -33.1016 151.7073 31° Northeast 260 299 23,300 1,292 Climbing Aus ATC (RADAR)
Sun 05:37:17 AM -33.0715 151.7283 30° Northeast 258 297 23,900 1,108 Climbing Aus ATC (RADAR)
Sun 05:37:52 AM -33.0351 151.7544 31° Northeast 262 302 24,500 1,114 Climbing Aus ATC (RADAR)
Sun 05:38:27 AM -32.9991 151.7798 31° Northeast 257 296 25,200 686 Climbing Aus ATC (RADAR)
Sun 05:39:02 AM -32.9622 151.8064 31° Northeast 264 304 25,300 86 Climbing Aus ATC (RADAR)
Sun 05:39:37 AM -32.9215 151.8352 31° Northeast 287 330 25,300  Level Aus ATC (RADAR)
Sun 05:40:07 AM -32.8842 151.8616 31° Northeast 306 352 25,300 92 Level Aus ATC (RADAR)
Sun 05:40:42 AM -32.8387 151.8931 30° Northeast 320 368 25,400  Climbing Aus ATC (RADAR)
Sun 05:41:17 AM -32.7908 151.9264 30° Northeast 336 387 25,300 -92 Descending Aus ATC (RADAR)
Sun 05:41:47 AM -32.7493 151.9563 31° Northeast 346 398 25,300  Level Aus ATC (RADAR)
Sun 05:42:22 AM -32.6998 151.9911 31° Northeast 352 405 25,300  Level Aus ATC (RADAR)
Sun 05:42:57 AM -32.6495 152.0266 31° Northeast 356 410 25,300  Level Aus ATC (RADAR)
Sun 05:44:02 AM -32.5544 152.0932 31° Northeast 364 419 25,300  Level Aus ATC (RADAR)
Sun 05:44:36 AM -32.5031 152.1293 31° Northeast 364 419 25,300  Level Aus ATC (RADAR)
Sun 05:45:11 AM -32.4496 152.1673 31° Northeast 371 427 25,300  Level Aus ATC (RADAR)
Sun 05:45:46 AM -32.3979 152.2025 30° Northeast 365 420 25,300  Level Aus ATC (RADAR)
Sun 05:46:16 AM -32.3543 152.2293 27° Northeast 362 417 25,300  Level Aus ATC (RADAR)
Sun 05:46:51 AM -32.2967 152.2483 16° North 364 419 25,300  Level Aus ATC (RADAR)
Sun 05:47:26 AM -32.2398 152.2685 17° North 365 420 25,300  Level Aus ATC (RADAR)
Sun 05:48:01 AM -32.1830 152.2897 18° North 366 421 25,300  Level Aus ATC (RADAR)
Sun 05:48:36 AM -32.1263 152.3109 18° North 365 420 25,300  Level Aus ATC (RADAR)
Sun 05:49:11 AM -32.0694 152.3323 18° North 366 421 25,300  Level Aus ATC (RADAR)
Sun 05:49:51 AM -32.0045 152.3563 17° North 366 421 25,300 -429 Level Aus ATC (RADAR)
Sun 05:50:21 AM -31.9553 152.3757 18° North 370 426 24,800 -1,015 Descending Aus ATC (RADAR)
Sun 05:50:56 AM -31.8978 152.3978 18° North 368 423 24,200 -1,029 Descending Aus ATC (RADAR)
Sun 05:51:31 AM -31.8411 152.4189 18° North 365 420 23,600 -1,029 Descending Aus ATC (RADAR)
Sun 05:52:06 AM -31.7839 152.4393 17° North 365 420 23,000 -1,029 Descending Aus ATC (RADAR)
Sun 05:52:41 AM -31.7266 152.4606 18° North 368 423 22,400 -960 Descending Aus ATC (RADAR)
Sun 05:53:21 AM -31.6609 152.4839 17° North 368 423 21,800 -960 Descending Aus ATC (RADAR)
Sun 05:54:21 AM -31.5633 152.5202 18° North 365 420 20,800 -1,029 Descending Aus ATC (RADAR)
Sun 05:55:06 AM -31.4908 152.5470 17° North 361 415 20,000 -981 Descending Aus ATC (RADAR)
Sun 05:56:05 AM -31.3941 152.5827 18° North 363 418 19,100 -960 Descending Aus ATC (RADAR)
Sun 05:56:46 AM -31.3293 152.6067 18° North 364 419 18,400 -1,040 Descending Aus ATC (RADAR)
Sun 05:57:20 AM -31.2724 152.6277 17° North 364 419 17,800 -1,029 Descending Aus ATC (RADAR)
Sun 05:57:56 AM -31.2150 152.6486 17° North 363 418 17,200 -1,000 Descending Aus ATC (RADAR)
Sun 05:58:26 AM -31.1679 152.6664 18° North 355 409 16,700 -923 Descending Aus ATC (RADAR)
Sun 05:59:01 AM -31.1114 152.6870 17° North 359 413 16,200 -957 Descending Aus ATC (RADAR)
Sun 05:59:35 AM -31.0537 152.7078 17° North 359 413 15,600 -1,291 Descending Aus ATC (RADAR)
Sun 06:00:20 AM -30.9846 152.7334 18° North 354 407 14,500 -1,650 Descending Aus ATC (RADAR)
Sun 06:00:55 AM -30.9287 152.7541 18° North 353 406 13,400 -1,662 Descending Aus ATC (RADAR)
Sun 06:01:25 AM -30.8935 152.7679 19° North 341 392 12,700 -1,791 Descending Aus ATC (RADAR)
Sun 06:02:02 AM -30.8349 152.7884 17° North 327 376 11,400 -1,973 Descending Aus ATC (RADAR)
Sun 06:02:38 AM -30.7929 152.8043 18° North 318 366 10,300 -1,846 Descending Aus ATC (RADAR)
Sun 06:03:20 AM -30.7258 152.8278 17° North 294 338 9,000 -1,663 Descending Aus ATC (RADAR)
Sun 06:04:19 AM -30.6528 152.8530 16° North 275 316 7,500 -1,418 Descending Aus ATC (RADAR)
Sun 06:05:10 AM -30.6014 152.8760 21° North 243 280 6,400 -1,294 Descending Aus ATC (RADAR)
Sun 06:07:33 AM -30.4585 152.9973 37° Northeast -2,685 Descending Aus ATC (Calculated)
Sun 06:08:19 AM -30.3896 153.0568 37° Northeast  Level Aus ATC (Calculated)
Sun 06:10:00 AM -30.3206 153.1164 34° Northeast  Level Estimated
Sun 06:11:00 AM -30.3206 153.1164 North  Level Estimated
Sun 06:12:00 AM -30.3206 153.1164 North  Level Estimated
Sun 06:13:00 AM -30.3206 153.1164 185° South  Level Estimated
Sun 06:14:00 AM -30.3206 153.1164 185° South  Level Estimated

Login

Don't have an account? Register now (free) for customized features, flight alerts, and more!